createdAt,value
2018-08-27T00:01:04.966Z,2.47
2018-08-27T00:03:33.585Z,2.37
2018-08-27T00:06:02.258Z,2.10
2018-08-27T00:08:30.912Z,2.67
2018-08-27T00:10:59.494Z,2.40
2018-08-27T00:13:28.166Z,2.63
2018-08-27T00:15:56.954Z,2.77
2018-08-27T00:18:25.512Z,2.30
2018-08-27T00:20:54.122Z,2.20
2018-08-27T00:23:22.704Z,2.30
2018-08-27T00:25:51.490Z,1.80
2018-08-27T00:28:20.076Z,2.30
2018-08-27T00:30:48.689Z,2.27
2018-08-27T00:33:17.354Z,2.23
2018-08-27T00:35:45.954Z,2.03
2018-08-27T00:38:14.509Z,2.53
2018-08-27T00:40:43.103Z,2.43
2018-08-27T00:43:11.686Z,2.73
2018-08-27T00:45:40.289Z,2.40
2018-08-27T00:48:08.853Z,2.80
2018-08-27T00:50:37.424Z,2.70
2018-08-27T00:53:06.277Z,2.80
2018-08-27T00:55:34.895Z,2.27
2018-08-27T00:58:04.009Z,3.03
2018-08-27T01:00:33.037Z,3.17
2018-08-27T01:03:01.879Z,2.63
2018-08-27T01:05:30.607Z,3.07
2018-08-27T01:07:59.245Z,3.20
2018-08-27T01:10:27.846Z,2.47
2018-08-27T01:12:56.617Z,2.63
2018-08-27T01:15:25.316Z,2.53
2018-08-27T01:17:54.093Z,2.67
2018-08-27T01:20:22.724Z,2.80
2018-08-27T01:22:51.399Z,2.53
2018-08-27T01:25:20.035Z,2.43
2018-08-27T01:27:48.925Z,2.70
2018-08-27T01:30:17.625Z,2.57
2018-08-27T01:32:46.311Z,2.57
2018-08-27T01:35:14.832Z,2.87
2018-08-27T01:37:43.391Z,2.20
2018-08-27T01:40:11.937Z,2.23
2018-08-27T01:42:40.881Z,2.73
2018-08-27T01:45:09.816Z,2.53
2018-08-27T01:47:38.336Z,2.30
2018-08-27T01:50:07.423Z,2.33
2018-08-27T01:52:35.980Z,2.70
2018-08-27T01:55:04.593Z,2.70
2018-08-27T01:57:33.262Z,2.73
2018-08-27T02:00:01.873Z,2.40
2018-08-27T02:02:30.659Z,2.57
2018-08-27T02:04:59.541Z,2.27
2018-08-27T02:07:28.108Z,2.60
2018-08-27T02:12:39.785Z,2.43
2018-08-27T02:15:09.208Z,2.50
2018-08-27T02:17:37.704Z,2.30
2018-08-27T02:20:06.907Z,2.23
2018-08-27T02:22:35.447Z,2.33
2018-08-27T02:25:04.068Z,3.00
2018-08-27T02:27:32.611Z,3.87
2018-08-27T02:30:01.515Z,18.97
2018-08-27T02:32:30.200Z,17.40
2018-08-27T02:34:58.821Z,16.30
2018-08-27T02:37:27.412Z,21.57
2018-08-27T02:39:55.996Z,8.50
2018-08-27T02:42:24.531Z,4.23
2018-08-27T02:44:53.201Z,3.47
2018-08-27T02:47:21.768Z,2.43
2018-08-27T02:49:50.392Z,2.10
2018-08-27T02:52:19.121Z,2.23
2018-08-27T02:54:47.699Z,2.23
2018-08-27T02:57:16.243Z,2.27
2018-08-27T02:59:44.795Z,1.93
2018-08-27T03:02:13.354Z,2.60
2018-08-27T03:04:41.875Z,1.77
2018-08-27T03:07:10.525Z,2.47
2018-08-27T03:09:39.107Z,2.00
2018-08-27T03:12:08.163Z,2.30
2018-08-27T03:14:36.751Z,2.40
2018-08-27T03:17:05.395Z,2.10
2018-08-27T03:19:34.011Z,2.00
2018-08-27T03:22:02.565Z,2.20
2018-08-27T03:24:31.132Z,2.40
2018-08-27T03:26:59.711Z,2.13
2018-08-27T03:29:28.351Z,2.10
2018-08-27T03:31:56.940Z,2.53
2018-08-27T03:34:25.478Z,2.30
2018-08-27T03:36:55.276Z,2.30
2018-08-27T03:39:23.907Z,2.47
2018-08-27T03:41:52.500Z,2.27
2018-08-27T03:44:21.020Z,2.10
2018-08-27T03:46:49.652Z,2.63
2018-08-27T03:49:18.198Z,2.33
2018-08-27T03:51:46.817Z,2.20
2018-08-27T03:54:15.621Z,2.50
2018-08-27T03:56:44.155Z,2.53
2018-08-27T03:59:12.780Z,1.90
2018-08-27T04:01:41.325Z,2.30
2018-08-27T04:04:10.006Z,2.20
2018-08-27T04:06:38.592Z,2.40
2018-08-27T04:09:08.867Z,2.43
2018-08-27T04:11:37.511Z,2.80
2018-08-27T04:14:06.634Z,2.37
2018-08-27T04:16:35.296Z,2.50
2018-08-27T04:19:03.922Z,2.50
2018-08-27T04:21:32.560Z,2.70
2018-08-27T04:24:01.144Z,3.10
2018-08-27T04:26:29.711Z,3.50
2018-08-27T04:28:58.375Z,3.17
2018-08-27T04:31:26.926Z,3.83
2018-08-27T04:33:55.672Z,3.20
2018-08-27T04:36:24.324Z,2.83
2018-08-27T04:38:53.610Z,2.70
2018-08-27T04:41:22.358Z,3.10
2018-08-27T04:43:51.549Z,2.90
2018-08-27T04:46:20.140Z,3.20
2018-08-27T04:48:48.761Z,2.73
2018-08-27T04:51:17.652Z,3.07
2018-08-27T04:53:46.199Z,2.90
2018-08-27T04:56:15.028Z,3.50
2018-08-27T04:58:45.519Z,2.87
2018-08-27T05:01:14.264Z,2.80
2018-08-27T05:03:42.884Z,2.70
2018-08-27T05:06:11.480Z,2.70
2018-08-27T05:08:40.065Z,2.43
2018-08-27T05:11:08.648Z,2.80
2018-08-27T05:13:37.232Z,3.53
2018-08-27T05:16:05.872Z,3.13
2018-08-27T05:18:34.457Z,2.73
2018-08-27T05:21:17.616Z,2.93
2018-08-27T05:23:46.564Z,3.20
2018-08-27T05:26:15.174Z,3.00
2018-08-27T05:28:43.793Z,2.80
2018-08-27T05:31:12.415Z,3.10
2018-08-27T05:33:41.150Z,2.37
2018-08-27T05:36:09.860Z,3.03
2018-08-27T05:38:38.472Z,3.00
2018-08-27T05:41:07.057Z,2.50
2018-08-27T05:43:35.656Z,2.63
2018-08-27T05:46:04.278Z,2.70
2018-08-27T05:48:32.844Z,3.00
2018-08-27T05:51:01.361Z,2.53
2018-08-27T05:53:30.144Z,2.80
2018-08-27T05:55:58.639Z,2.80
2018-08-27T05:58:27.687Z,2.70
2018-08-27T06:00:56.294Z,3.07
2018-08-27T06:03:24.822Z,2.83
2018-08-27T06:05:53.352Z,2.80
2018-08-27T06:08:22.024Z,3.27
2018-08-27T06:10:50.551Z,2.53
2018-08-27T06:13:19.258Z,2.93
2018-08-27T06:15:47.819Z,2.87
2018-08-27T06:18:16.442Z,3.60
2018-08-27T06:20:45.071Z,3.60
2018-08-27T06:23:13.643Z,3.17
2018-08-27T06:25:42.593Z,3.23
2018-08-27T06:28:11.119Z,3.17
2018-08-27T06:30:39.746Z,3.40
2018-08-27T06:33:08.402Z,3.30
2018-08-27T06:35:36.975Z,3.37
2018-08-27T06:38:06.129Z,2.87
2018-08-27T06:40:34.625Z,2.80
2018-08-27T06:43:03.685Z,3.37
2018-08-27T06:45:32.598Z,2.87
2018-08-27T06:48:01.184Z,3.47
2018-08-27T06:50:29.739Z,2.80
2018-08-27T06:52:59.176Z,3.23
2018-08-27T06:55:27.763Z,3.23
2018-08-27T06:57:56.405Z,3.57
2018-08-27T07:00:26.146Z,3.30
2018-08-27T07:02:54.791Z,3.07
2018-08-27T07:05:23.502Z,3.20
2018-08-27T07:07:52.050Z,3.73
2018-08-27T07:10:20.617Z,3.67
2018-08-27T07:12:49.259Z,3.43
2018-08-27T07:15:17.914Z,3.47
2018-08-27T07:17:46.519Z,3.40
2018-08-27T07:20:15.217Z,2.97
2018-08-27T07:22:44.071Z,3.20
2018-08-27T07:25:13.494Z,3.90
2018-08-27T07:27:42.400Z,2.70
2018-08-27T07:30:11.143Z,2.67
2018-08-27T07:32:39.775Z,2.33
2018-08-27T07:35:08.678Z,3.10
2018-08-27T07:37:37.289Z,2.93
2018-08-27T07:40:06.258Z,2.90
2018-08-27T07:42:35.768Z,3.30
2018-08-27T07:45:05.804Z,3.03
2018-08-27T07:47:34.557Z,2.83
2018-08-27T07:50:03.194Z,2.43
2018-08-27T07:52:31.815Z,1.90
2018-08-27T07:55:00.447Z,1.90
2018-08-27T07:57:29.712Z,1.90
2018-08-27T07:59:58.383Z,1.73
2018-08-27T08:02:27.067Z,1.80
2018-08-27T08:04:55.847Z,1.83
2018-08-27T08:07:24.556Z,1.90
2018-08-27T08:09:53.582Z,1.67
2018-08-27T08:12:22.256Z,1.73
2018-08-27T08:14:52.134Z,1.50
2018-08-27T08:17:20.731Z,1.70
2018-08-27T08:19:49.380Z,1.60
2018-08-27T08:22:17.919Z,1.50
2018-08-27T08:24:46.784Z,1.43
2018-08-27T08:27:15.415Z,1.53
2018-08-27T08:29:44.452Z,1.50
2018-08-27T08:32:13.010Z,1.40
2018-08-27T08:34:41.573Z,1.67
2018-08-27T08:37:10.737Z,1.53
2018-08-27T08:39:39.341Z,1.43
2018-08-27T08:42:08.046Z,1.57
2018-08-27T08:44:36.830Z,1.50
2018-08-27T08:47:05.412Z,1.30
2018-08-27T08:49:35.024Z,1.50
2018-08-27T08:52:03.579Z,1.67
2018-08-27T08:54:32.470Z,1.17
2018-08-27T08:57:01.870Z,1.43
2018-08-27T08:59:30.459Z,1.40
2018-08-27T09:01:59.173Z,1.47
2018-08-27T09:04:28.022Z,1.37
2018-08-27T09:06:56.824Z,1.10
2018-08-27T09:09:27.607Z,1.60
2018-08-27T09:11:56.211Z,1.40
2018-08-27T09:14:24.773Z,1.37
2018-08-27T09:16:53.887Z,1.50
2018-08-27T09:19:22.694Z,1.23
2018-08-27T09:21:51.296Z,1.30
2018-08-27T09:24:20.298Z,1.60
2018-08-27T09:26:49.386Z,1.23
2018-08-27T09:29:18.570Z,1.70
2018-08-27T09:31:47.573Z,1.50
2018-08-27T09:34:16.207Z,1.30
2018-08-27T09:36:44.976Z,2.00
2018-08-27T09:39:13.628Z,1.90
2018-08-27T09:41:42.455Z,1.67
2018-08-27T09:44:11.290Z,2.00
2018-08-27T09:46:40.120Z,1.50
2018-08-27T09:49:08.830Z,1.80
2018-08-27T09:51:37.551Z,1.47
2018-08-27T09:54:06.455Z,1.50
2018-08-27T09:56:35.188Z,1.20
2018-08-27T09:59:04.598Z,1.70
2018-08-27T10:01:36.044Z,1.50
2018-08-27T10:04:05.483Z,1.70
2018-08-27T10:06:35.180Z,1.60
2018-08-27T10:09:04.558Z,1.60
2018-08-27T10:11:33.242Z,1.73
2018-08-27T10:14:01.948Z,2.10
2018-08-27T10:16:30.822Z,1.70
2018-08-27T10:18:59.480Z,1.80
2018-08-27T10:21:28.078Z,1.43
2018-08-27T10:23:57.502Z,2.07
2018-08-27T10:26:26.159Z,1.90
2018-08-27T10:28:54.876Z,1.73
2018-08-27T10:31:23.739Z,1.97
2018-08-27T10:33:52.426Z,1.90
2018-08-27T10:36:21.361Z,1.90
2018-08-27T10:38:50.042Z,1.87
2018-08-27T10:41:19.194Z,1.77
2018-08-27T10:43:48.474Z,2.10
2018-08-27T10:46:17.265Z,1.80
2018-08-27T10:48:46.033Z,1.73
2018-08-27T10:51:14.861Z,1.83
2018-08-27T10:53:43.579Z,1.87
2018-08-27T10:56:12.494Z,2.10
2018-08-27T10:58:41.159Z,1.70
2018-08-27T11:01:09.766Z,2.00
2018-08-27T11:03:38.784Z,2.40
2018-08-27T11:06:07.746Z,1.70
2018-08-27T11:08:36.411Z,2.17
2018-08-27T11:11:05.119Z,2.00
2018-08-27T11:13:33.792Z,2.00
2018-08-27T11:16:02.773Z,1.73
2018-08-27T11:18:31.692Z,1.80
2018-08-27T11:21:00.308Z,2.27
2018-08-27T11:23:28.882Z,1.73
2018-08-27T11:25:57.428Z,2.00
2018-08-27T11:28:26.117Z,2.10
2018-08-27T11:30:54.702Z,1.87
2018-08-27T11:33:23.282Z,1.70
2018-08-27T11:42:50.508Z,2.00
2018-08-27T11:45:19.136Z,2.50
2018-08-27T11:47:47.842Z,1.90
2018-08-27T11:50:16.497Z,2.30
2018-08-27T11:52:45.005Z,2.40
2018-08-27T11:55:13.818Z,1.80
2018-08-27T11:57:42.481Z,2.00
2018-08-27T12:00:15.803Z,2.20
2018-08-27T12:02:44.494Z,1.80
2018-08-27T12:05:13.070Z,1.80
2018-08-27T12:07:41.627Z,1.93
2018-08-27T12:10:10.296Z,1.80
2018-08-27T12:12:39.376Z,1.80
2018-08-27T12:15:08.552Z,1.57
2018-08-27T12:17:37.090Z,2.00
2018-08-27T12:20:06.228Z,1.73
2018-08-27T12:22:35.855Z,1.97
2018-08-27T12:25:04.628Z,1.93
2018-08-27T12:27:33.344Z,1.93
2018-08-27T12:30:02.003Z,1.63
2018-08-27T12:32:30.779Z,2.17
2018-08-27T12:34:59.993Z,1.50
2018-08-27T12:37:28.570Z,1.83
2018-08-27T12:39:57.157Z,1.90
2018-08-27T12:42:25.794Z,1.57
2018-08-27T12:44:55.165Z,2.20
2018-08-27T12:47:24.092Z,1.60
2018-08-27T12:49:53.327Z,1.60
2018-08-27T12:52:22.128Z,1.90
2018-08-27T12:54:50.915Z,1.80
2018-08-27T12:57:19.623Z,1.90
2018-08-27T12:59:48.191Z,1.93
2018-08-27T13:02:16.819Z,2.07
2018-08-27T13:04:45.505Z,1.77
2018-08-27T13:07:14.244Z,3.20
2018-08-27T13:09:42.861Z,2.00
2018-08-27T13:12:11.443Z,2.07
2018-08-27T13:14:40.152Z,1.90
2018-08-27T13:17:09.144Z,1.87
2018-08-27T13:19:37.759Z,1.97
2018-08-27T13:22:06.370Z,1.80
2018-08-27T13:24:34.960Z,1.77
2018-08-27T13:27:03.710Z,2.00
2018-08-27T13:29:32.337Z,1.50
2018-08-27T13:32:00.986Z,2.23
2018-08-27T13:34:29.447Z,1.93
2018-08-27T13:36:58.839Z,2.00
2018-08-27T13:39:27.922Z,1.80
2018-08-27T13:41:56.633Z,1.70
2018-08-27T13:44:25.568Z,2.13
2018-08-27T13:46:54.199Z,2.00
2018-08-27T13:49:22.850Z,2.03
2018-08-27T13:51:55.622Z,2.27
2018-08-27T13:54:24.234Z,1.77
2018-08-27T13:56:53.094Z,2.00
2018-08-27T13:59:21.724Z,2.30
2018-08-27T14:01:50.424Z,2.27
2018-08-27T14:04:18.960Z,2.10
2018-08-27T14:06:47.660Z,2.00
2018-08-27T14:09:16.263Z,2.30
2018-08-27T14:11:44.825Z,1.97
2018-08-27T14:14:13.432Z,2.20
2018-08-27T14:16:42.322Z,2.07
2018-08-27T14:19:11.048Z,3.00
2018-08-27T14:21:39.515Z,1.90
2018-08-27T14:24:08.089Z,2.37
2018-08-27T14:26:37.111Z,1.90
2018-08-27T14:29:05.999Z,1.93
2018-08-27T14:31:34.694Z,1.80
2018-08-27T14:34:03.905Z,2.13
2018-08-27T14:36:32.754Z,1.80
2018-08-27T14:39:02.043Z,2.00
2018-08-27T14:41:30.779Z,2.00
2018-08-27T14:43:59.273Z,1.80
2018-08-27T14:46:28.084Z,1.53
2018-08-27T14:48:56.624Z,1.77
2018-08-27T14:51:25.159Z,1.60
2018-08-27T14:53:53.801Z,1.50
2018-08-27T14:56:22.617Z,1.70
2018-08-27T14:58:51.263Z,1.40
2018-08-27T15:01:21.959Z,1.47
2018-08-27T15:03:50.583Z,1.90
2018-08-27T15:06:19.865Z,1.40
2018-08-27T15:08:48.491Z,1.67
2018-08-27T15:11:17.067Z,1.50
2018-08-27T15:13:45.975Z,1.63
2018-08-27T15:16:14.528Z,1.87
2018-08-27T15:18:43.196Z,1.90
2018-08-27T15:21:12.020Z,1.83
2018-08-27T15:23:40.733Z,1.57
2018-08-27T15:26:09.496Z,1.73
2018-08-27T15:28:38.180Z,2.00
2018-08-27T15:31:06.885Z,1.70
2018-08-27T15:33:35.461Z,1.60
2018-08-27T15:36:04.051Z,1.80
2018-08-27T15:38:32.994Z,1.47
2018-08-27T15:41:01.668Z,1.30
2018-08-27T15:43:30.638Z,1.30
2018-08-27T15:46:04.451Z,1.40
2018-08-27T15:48:33.087Z,1.30
2018-08-27T15:51:01.773Z,1.43
2018-08-27T15:53:30.387Z,1.60
2018-08-27T15:55:59.098Z,1.30
2018-08-27T15:58:27.938Z,1.50
2018-08-27T16:00:56.688Z,1.43
2018-08-27T16:03:25.349Z,1.50
2018-08-27T16:05:54.194Z,1.60
2018-08-27T16:08:23.156Z,1.77
2018-08-27T16:10:51.864Z,1.80
2018-08-27T16:13:20.612Z,1.40
2018-08-27T16:15:49.172Z,1.57
2018-08-27T16:18:18.003Z,1.60
2018-08-27T16:20:46.672Z,1.90
2018-08-27T16:23:15.457Z,1.47
2018-08-27T16:25:44.172Z,1.50
2018-08-27T16:28:13.114Z,1.37
2018-08-27T16:30:41.938Z,1.40
2018-08-27T16:33:10.616Z,1.50
2018-08-27T16:35:39.197Z,1.77
2018-08-27T16:38:08.431Z,1.33
2018-08-27T16:40:37.079Z,1.80
2018-08-27T16:43:05.744Z,1.80
2018-08-27T16:45:34.353Z,1.70
2018-08-27T16:48:03.254Z,1.60
2018-08-27T16:50:31.888Z,1.40
2018-08-27T16:53:00.584Z,1.90
2018-08-27T16:55:29.266Z,1.60
2018-08-27T16:57:58.140Z,1.60
2018-08-27T17:00:27.402Z,1.20
2018-08-27T17:02:56.042Z,1.80
2018-08-27T17:05:24.830Z,1.70
2018-08-27T17:07:53.640Z,1.73
2018-08-27T17:10:22.393Z,1.70
2018-08-27T17:12:50.987Z,2.20
2018-08-27T17:15:19.663Z,2.07
2018-08-27T17:17:48.262Z,1.43
2018-08-27T17:20:17.585Z,2.03
2018-08-27T17:22:46.502Z,1.80
2018-08-27T17:25:15.126Z,1.50
2018-08-27T17:27:43.672Z,1.60
2018-08-27T17:30:12.309Z,1.67
2018-08-27T17:32:40.818Z,1.80
2018-08-27T17:35:09.796Z,1.60
2018-08-27T17:37:38.420Z,2.00
2018-08-27T17:40:07.517Z,1.93
2018-08-27T17:42:36.440Z,1.83
2018-08-27T17:45:05.261Z,1.90
2018-08-27T17:47:34.092Z,1.63
2018-08-27T17:50:02.676Z,1.70
2018-08-27T17:52:31.367Z,1.93
2018-08-27T17:55:00.535Z,1.80
2018-08-27T17:57:29.454Z,1.80
2018-08-27T17:59:58.034Z,1.77
2018-08-27T18:02:26.693Z,1.83
2018-08-27T18:04:55.423Z,2.10
2018-08-27T18:07:29.248Z,1.90
2018-08-27T18:09:57.875Z,1.90
2018-08-27T18:12:26.606Z,2.33
2018-08-27T18:14:55.109Z,2.00
2018-08-27T18:17:25.143Z,2.60
2018-08-27T18:19:53.791Z,2.60
2018-08-27T18:22:22.429Z,2.30
2018-08-27T18:24:51.388Z,2.27
2018-08-27T18:27:19.965Z,1.80
2018-08-27T18:29:48.471Z,2.00
2018-08-27T18:32:17.035Z,2.37
2018-08-27T18:34:45.570Z,2.10
2018-08-27T18:37:14.425Z,1.93
2018-08-27T18:39:42.993Z,2.10
2018-08-27T18:42:11.515Z,2.00
2018-08-27T18:44:40.090Z,1.50
2018-08-27T18:47:09.195Z,2.00
2018-08-27T18:49:38.150Z,2.10
2018-08-27T18:52:06.768Z,1.80
2018-08-27T18:54:35.355Z,1.83
2018-08-27T18:57:04.312Z,1.90
2018-08-27T18:59:33.037Z,1.97
2018-08-27T19:02:01.641Z,2.30
2018-08-27T19:04:30.229Z,2.10
2018-08-27T19:06:58.797Z,4.33
2018-08-27T19:09:27.747Z,2.23
2018-08-27T19:11:56.329Z,2.83
2018-08-27T19:14:24.929Z,2.00
2018-08-27T19:16:53.593Z,1.97
2018-08-27T19:19:22.260Z,1.80
2018-08-27T19:21:50.868Z,2.47
2018-08-27T19:24:19.495Z,2.00
2018-08-27T19:26:48.071Z,2.17
2018-08-27T19:29:16.709Z,1.97
2018-08-27T19:31:45.308Z,2.40
2018-08-27T19:34:13.835Z,2.00
2018-08-27T19:36:42.591Z,2.47
2018-08-27T19:39:11.210Z,1.90
2018-08-27T19:41:39.830Z,2.37
2018-08-27T19:44:08.417Z,2.10
2018-08-27T19:46:37.932Z,2.17
2018-08-27T19:49:06.564Z,2.23
2018-08-27T19:51:35.145Z,2.17
2018-08-27T19:54:03.663Z,2.87
2018-08-27T19:56:32.363Z,2.53
2018-08-27T19:59:01.004Z,2.53
2018-08-27T20:01:29.884Z,2.07
2018-08-27T20:03:58.795Z,1.73
2018-08-27T20:06:27.419Z,2.20
2018-08-27T20:08:56.258Z,1.73
2018-08-27T20:11:24.837Z,2.33
2018-08-27T20:13:53.449Z,2.47
2018-08-27T20:16:22.048Z,2.63
2018-08-27T20:18:50.871Z,2.10
2018-08-27T20:21:19.508Z,2.00
2018-08-27T20:23:48.123Z,2.10
2018-08-27T20:26:16.797Z,2.07
2018-08-27T20:28:45.828Z,2.40
2018-08-27T20:31:14.405Z,1.70
2018-08-27T20:33:42.973Z,2.17
2018-08-27T20:36:11.641Z,2.50
2018-08-27T20:38:40.282Z,2.00
2018-08-27T20:41:08.913Z,2.17
2018-08-27T20:43:38.495Z,2.13
2018-08-27T20:46:07.180Z,2.47
2018-08-27T20:48:36.055Z,1.90
2018-08-27T20:51:04.685Z,2.37
2018-08-27T20:53:33.643Z,2.30
2018-08-27T20:56:02.546Z,2.60
2018-08-27T20:58:31.311Z,2.37
2018-08-27T21:01:00.510Z,2.20
2018-08-27T21:03:29.127Z,2.30
2018-08-27T21:05:57.671Z,2.23
2018-08-27T21:08:26.354Z,2.03
2018-08-27T21:10:54.912Z,2.10
2018-08-27T21:13:23.500Z,2.10
2018-08-27T21:15:52.065Z,1.70
2018-08-27T21:18:20.665Z,2.33
2018-08-27T21:20:49.384Z,1.77
2018-08-27T21:23:17.984Z,1.70
2018-08-27T21:25:46.631Z,2.30
2018-08-27T21:28:15.519Z,2.17
2018-08-27T21:30:44.297Z,2.47
2018-08-27T21:33:13.141Z,2.63
2018-08-27T21:35:41.685Z,2.30
2018-08-27T21:38:10.251Z,2.40
2018-08-27T21:40:38.850Z,2.63
2018-08-27T21:43:07.420Z,2.13
2018-08-27T21:45:36.003Z,2.53
2018-08-27T21:48:04.855Z,2.10
2018-08-27T21:50:33.533Z,2.10
2018-08-27T21:53:02.218Z,2.73
2018-08-27T21:55:30.956Z,2.23
2018-08-27T21:57:59.663Z,2.40
2018-08-27T22:00:28.272Z,2.20
2018-08-27T22:03:02.310Z,2.30
2018-08-27T22:05:30.928Z,2.50
2018-08-27T22:07:59.751Z,2.13
2018-08-27T22:10:28.294Z,2.30
2018-08-27T22:12:56.914Z,2.53
2018-08-27T22:15:25.440Z,2.10
2018-08-27T22:17:54.255Z,2.40
2018-08-27T22:20:22.753Z,2.07
2018-08-27T22:22:51.511Z,2.53
2018-08-27T22:25:19.995Z,2.17
2018-08-27T22:27:48.633Z,2.30
2018-08-27T22:30:17.209Z,2.20
2018-08-27T22:32:45.869Z,2.53
2018-08-27T22:35:14.889Z,2.37
2018-08-27T22:37:43.475Z,2.20
2018-08-27T22:40:12.081Z,2.07
2018-08-27T22:42:40.597Z,2.40
2018-08-27T22:45:09.190Z,1.83
2018-08-27T22:47:37.717Z,2.10
2018-08-27T22:50:06.602Z,2.47
2018-08-27T22:52:35.258Z,2.30
2018-08-27T22:55:03.836Z,2.50
2018-08-27T22:57:32.461Z,2.47
2018-08-27T23:00:01.530Z,2.10
2018-08-27T23:02:35.378Z,2.00
2018-08-27T23:05:03.947Z,2.27
2018-08-27T23:07:32.596Z,2.47
2018-08-27T23:10:01.195Z,2.47
2018-08-27T23:12:29.797Z,2.50
2018-08-27T23:14:58.353Z,2.43
2018-08-27T23:17:26.934Z,2.07
2018-08-27T23:19:55.606Z,2.57
2018-08-27T23:22:24.153Z,2.73
2018-08-27T23:24:52.636Z,2.87
2018-08-27T23:27:21.269Z,2.70
2018-08-27T23:29:49.751Z,2.57
2018-08-27T23:32:18.312Z,2.20
2018-08-27T23:34:46.812Z,2.43
2018-08-27T23:37:15.413Z,2.63
2018-08-27T23:39:44.214Z,2.80
2018-08-27T23:42:12.797Z,2.40
2018-08-27T23:44:41.366Z,3.00
2018-08-27T23:47:10.032Z,2.27
2018-08-27T23:49:38.540Z,2.73
2018-08-27T23:52:07.169Z,2.53
2018-08-27T23:54:35.807Z,2.67
2018-08-27T23:57:04.696Z,2.80
2018-08-27T23:59:33.355Z,3.47
